Maurepas, Louisiana
Current Conditions -  °F | °C
As of 7:15 PM on Saturday 22 Nov 2014 (Local Time) from K1L0 Reporting Station
Overcast Overcast  
Wind Chill: 62°   Ceiling: 1100
Heat Index: 62°   Visibility: 10mi
Dew Point: 58°   Wind: 8mph
Humidity: 87%   Direction: 70°ENE
Pressure: 30.01"   Gusts: NA
Location:  30.3°N, 90.66°W
Report Text: K1L0 230115Z AUTO 07007KT 10SM OVC011 17/15 A3001 RMK AO2 T01670145
Loading
Personal Weather Stations






























Interactive Weather Map New forecast layout! Learn more

10-Day Weather Forecast

Advertisements
Track Severe Weather on mobile